Time;durP1;ratioP1;P1;durP2;ratioP2;P2;SDS_P1;SDS_P2;PMS_P1;PMS_P2;Temp;Humidity;BMP_temperature;BMP_pressure;BME280_temperature;BME280_humidity;BME280_pressure;Samples;Min_cycle;Max_cycle;Signal;HPM_P1;HPM_P2
2021/10/31 00:00:32;;;;;;;19.85;10.45;;;;;;;;;;5069446;28;20386;-59
2021/10/31 00:03:03;;;;;;;26.65;10.80;;;;;;;;;;5038096;28;20036;-60
2021/10/31 00:05:30;;;;;;;24.33;10.73;;;;;;;;;;5053949;28;20115;-60
2021/10/31 00:07:56;;;;;;;33.58;11.05;;;;;;;;;;5070482;28;21906;-60
2021/10/31 00:10:24;;;;;;;42.35;12.35;;;;;;;;;;5069296;28;20044;-59
2021/10/31 00:12:53;;;;;;;29.08;11.43;;;;;;;;;;5071939;28;20030;-59
2021/10/31 00:15:19;;;;;;;33.20;12.05;;;;;;;;;;5069507;28;20048;-58
2021/10/31 00:17:47;;;;;;;28.48;11.90;;;;;;;;;;5054649;28;20020;-60
2021/10/31 00:20:15;;;;;;;34.55;11.85;;;;;;;;;;5052991;28;20047;-60
2021/10/31 00:22:44;;;;;;;31.20;11.55;;;;;;;;;;5068860;28;20488;-60
2021/10/31 00:25:09;;;;;;;36.95;12.18;;;;;;;;;;5066906;28;20044;-59
2021/10/31 00:27:35;;;;;;;33.45;12.15;;;;;;;;;;5068037;28;20395;-59
2021/10/31 00:30:03;;;;;;;36.83;13.13;;;;;;;;;;5052764;28;20036;-60
2021/10/31 00:32:33;;;;;;;38.70;12.18;;;;;;;;;;5052711;28;20036;-60
2021/10/31 00:35:01;;;;;;;32.70;12.38;;;;;;;;;;5071123;28;20032;-59
2021/10/31 00:37:28;;;;;;;31.65;12.63;;;;;;;;;;5052401;28;20028;-59
2021/10/31 00:39:54;;;;;;;34.78;13.00;;;;;;;;;;5070980;28;20047;-59
2021/10/31 00:45:58;;;;;;;41.22;13.88;;;;;;;;;;5069103;28;20035;-59
2021/10/31 00:48:26;;;;;;;32.15;12.48;;;;;;;;;;5071694;28;20484;-60
2021/10/31 00:50:52;;;;;;;44.22;13.85;;;;;;;;;;5068437;28;20486;-60
2021/10/31 00:53:21;;;;;;;49.45;14.45;;;;;;;;;;5069490;28;20023;-60
2021/10/31 00:55:47;;;;;;;35.80;13.13;;;;;;;;;;5069802;28;20032;-60
2021/10/31 00:58:15;;;;;;;33.65;14.15;;;;;;;;;;5041056;28;20116;-59
2021/10/31 01:00:41;;;;;;;33.20;13.25;;;;;;;;;;5068545;28;21391;-59
2021/10/31 01:03:09;;;;;;;32.05;13.55;;;;;;;;;;5050876;28;20048;-59
2021/10/31 01:08:23;;;;;;;37.30;16.20;;;;;;;;;;5018276;22;20143;-61
2021/10/31 01:11:14;;;;;;;36.45;13.90;;;;;;;;;;5001050;28;20144;-59
2021/10/31 01:14:21;;;;;;;40.55;15.13;;;;;;;;;;4977588;28;20597;-59
2021/10/31 01:17:07;;;;;;;38.47;14.93;;;;;;;;;;4927822;28;20520;-60
2021/10/31 01:19:52;;;;;;;35.80;14.25;;;;;;;;;;4938816;28;20050;-60
2021/10/31 01:22:18;;;;;;;38.03;14.93;;;;;;;;;;4967006;28;20050;-59
2021/10/31 01:24:59;;;;;;;44.78;15.10;;;;;;;;;;5000885;28;20033;-59
2021/10/31 01:27:33;;;;;;;34.17;14.50;;;;;;;;;;5000838;28;20109;-59
2021/10/31 01:30:18;;;;;;;38.70;14.93;;;;;;;;;;5000858;28;20096;-58
2021/10/31 01:32:58;;;;;;;37.28;13.73;;;;;;;;;;4983831;28;20152;-60
2021/10/31 01:35:45;;;;;;;39.33;14.98;;;;;;;;;;5001321;28;20108;-60
2021/10/31 01:38:12;;;;;;;38.92;13.50;;;;;;;;;;5001311;28;20032;-59
2021/10/31 01:40:45;;;;;;;40.35;14.35;;;;;;;;;;5003248;28;20267;-60
2021/10/31 01:43:14;;;;;;;37.38;13.13;;;;;;;;;;4981264;28;20069;-59
2021/10/31 01:45:45;;;;;;;42.38;15.35;;;;;;;;;;4983820;28;20074;-60
2021/10/31 01:48:11;;;;;;;34.35;13.73;;;;;;;;;;4982546;28;20034;-59
2021/10/31 01:50:42;;;;;;;29.88;13.35;;;;;;;;;;4998985;28;20370;-61
2021/10/31 01:53:22;;;;;;;40.03;14.82;;;;;;;;;;5000475;28;20056;-59
2021/10/31 01:56:19;;;;;;;45.47;15.18;;;;;;;;;;4998909;28;20670;-64
2021/10/31 01:58:51;;;;;;;37.08;15.55;;;;;;;;;;4979544;28;20041;-60
2021/10/31 02:01:20;;;;;;;39.85;14.00;;;;;;;;;;4983191;28;20677;-60
2021/10/31 02:03:47;;;;;;;35.30;14.15;;;;;;;;;;5000459;28;20042;-60
2021/10/31 02:06:15;;;;;;;43.63;16.20;;;;;;;;;;5001638;28;20059;-59
2021/10/31 02:08:41;;;;;;;36.28;14.95;;;;;;;;;;4984912;28;20065;-60
2021/10/31 02:11:09;;;;;;;45.08;15.43;;;;;;;;;;4996983;28;20033;-60
2021/10/31 02:13:37;;;;;;;40.05;15.95;;;;;;;;;;4999969;28;20033;-61
2021/10/31 02:16:06;;;;;;;48.35;17.08;;;;;;;;;;4987549;28;20064;-59
2021/10/31 02:18:33;;;;;;;36.72;15.20;;;;;;;;;;5000270;28;20033;-59
2021/10/31 02:21:01;;;;;;;35.78;16.23;;;;;;;;;;4979282;28;20026;-59
2021/10/31 02:23:28;;;;;;;38.28;16.75;;;;;;;;;;4997083;28;20167;-60
2021/10/31 02:25:57;;;;;;;45.70;16.50;;;;;;;;;;4999057;28;20144;-59
2021/10/31 02:28:22;;;;;;;34.28;16.08;;;;;;;;;;4983807;28;20147;-59
2021/10/31 02:30:52;;;;;;;37.15;16.33;;;;;;;;;;4997348;28;20049;-61
2021/10/31 02:33:23;;;;;;;37.42;17.08;;;;;;;;;;4997890;28;20241;-59
2021/10/31 02:35:49;;;;;;;46.13;16.80;;;;;;;;;;4999398;28;20033;-60
2021/10/31 02:38:17;;;;;;;52.17;17.75;;;;;;;;;;4996850;28;20060;-60
2021/10/31 02:40:42;;;;;;;34.42;16.17;;;;;;;;;;4998348;28;20034;-59
2021/10/31 02:43:13;;;;;;;39.70;16.90;;;;;;;;;;4997741;28;20049;-59
2021/10/31 02:45:43;;;;;;;41.50;16.45;;;;;;;;;;4997048;28;20077;-60
2021/10/31 02:48:17;;;;;;;43.75;17.77;;;;;;;;;;5001301;28;20044;-59
2021/10/31 02:50:46;;;;;;;44.97;17.37;;;;;;;;;;4980033;28;20422;-60
2021/10/31 02:53:15;;;;;;;37.20;15.52;;;;;;;;;;4998572;28;20102;-58
2021/10/31 02:55:51;;;;;;;37.58;17.02;;;;;;;;;;4999077;28;20034;-59
2021/10/31 02:58:23;;;;;;;36.70;16.35;;;;;;;;;;4997584;28;20034;-60
2021/10/31 03:00:54;;;;;;;43.58;18.17;;;;;;;;;;4996572;28;20065;-60
2021/10/31 03:03:22;;;;;;;38.08;16.92;;;;;;;;;;4979353;28;20038;-61
2021/10/31 03:05:52;;;;;;;45.90;18.05;;;;;;;;;;4999682;28;20102;-60
2021/10/31 03:08:18;;;;;;;46.53;18.05;;;;;;;;;;4962311;28;20521;-59
2021/10/31 03:10:48;;;;;;;45.38;18.27;;;;;;;;;;4976830;28;20021;-60
2021/10/31 03:13:15;;;;;;;40.63;17.90;;;;;;;;;;4961108;28;20115;-59
2021/10/31 03:15:43;;;;;;;43.50;18.10;;;;;;;;;;4977377;28;20611;-59
2021/10/31 03:18:12;;;;;;;38.22;15.55;;;;;;;;;;4978523;28;20134;-60
2021/10/31 03:20:39;;;;;;;41.95;17.40;;;;;;;;;;4978336;28;20037;-59
2021/10/31 03:23:05;;;;;;;43.95;16.90;;;;;;;;;;4965707;28;20405;-60
2021/10/31 03:25:34;;;;;;;39.13;16.27;;;;;;;;;;4978461;28;20089;-59
2021/10/31 03:28:03;;;;;;;49.70;17.25;;;;;;;;;;4976249;28;20504;-59
2021/10/31 03:30:31;;;;;;;31.83;16.25;;;;;;;;;;4976414;28;20041;-60
2021/10/31 03:32:57;;;;;;;36.25;16.30;;;;;;;;;;4978115;28;20502;-60
2021/10/31 03:35:26;;;;;;;41.83;15.77;;;;;;;;;;4958864;28;20118;-59
2021/10/31 03:37:51;;;;;;;39.13;15.82;;;;;;;;;;4977198;28;20038;-60
2021/10/31 03:40:20;;;;;;;36.83;15.68;;;;;;;;;;4978323;28;20032;-59
2021/10/31 03:42:45;;;;;;;37.15;16.00;;;;;;;;;;4979343;28;20042;-59
2021/10/31 03:45:12;;;;;;;47.65;15.73;;;;;;;;;;4961553;28;20042;-59
2021/10/31 03:47:42;;;;;;;41.47;16.45;;;;;;;;;;4960210;28;20038;-59
2021/10/31 03:50:08;;;;;;;39.78;15.75;;;;;;;;;;4965714;28;20560;-59
2021/10/31 03:52:34;;;;;;;36.75;15.10;;;;;;;;;;4977074;28;20057;-60
2021/10/31 03:54:59;;;;;;;35.58;15.73;;;;;;;;;;4976550;28;20125;-60
2021/10/31 03:57:25;;;;;;;36.28;15.30;;;;;;;;;;4975901;28;20034;-58
2021/10/31 03:59:52;;;;;;;39.50;16.00;;;;;;;;;;4966844;28;20034;-59
2021/10/31 04:02:21;;;;;;;40.10;16.33;;;;;;;;;;4963189;28;20031;-60
2021/10/31 04:04:46;;;;;;;36.28;15.32;;;;;;;;;;4964480;28;20466;-59
2021/10/31 04:07:12;;;;;;;44.53;17.20;;;;;;;;;;4985001;28;20060;-60
2021/10/31 04:09:42;;;;;;;31.92;15.50;;;;;;;;;;4999360;28;20061;-60
2021/10/31 04:12:10;;;;;;;35.65;15.45;;;;;;;;;;4969417;28;20129;-59
2021/10/31 04:14:38;;;;;;;39.90;16.45;;;;;;;;;;4982634;28;20130;-60
2021/10/31 04:17:06;;;;;;;43.03;15.05;;;;;;;;;;4996863;28;20373;-60
2021/10/31 04:19:37;;;;;;;38.13;16.45;;;;;;;;;;4996074;28;20026;-60
2021/10/31 04:22:05;;;;;;;38.33;16.27;;;;;;;;;;4997630;28;20733;-59
2021/10/31 04:24:33;;;;;;;34.22;15.65;;;;;;;;;;4982542;28;20034;-60
2021/10/31 04:26:59;;;;;;;50.33;16.55;;;;;;;;;;4997141;28;20124;-59
2021/10/31 04:29:25;;;;;;;35.00;16.52;;;;;;;;;;4962702;28;20111;-59
2021/10/31 04:31:54;;;;;;;36.80;16.95;;;;;;;;;;4993514;28;20049;-60
2021/10/31 04:34:19;;;;;;;43.17;17.13;;;;;;;;;;4997409;28;20033;-60
2021/10/31 04:36:47;;;;;;;44.28;16.33;;;;;;;;;;4965360;28;20045;-59
2021/10/31 04:39:16;;;;;;;41.67;17.48;;;;;;;;;;4996813;28;20034;-59
2021/10/31 04:41:46;;;;;;;37.05;15.95;;;;;;;;;;4996236;28;20042;-59
2021/10/31 04:44:16;;;;;;;46.22;17.48;;;;;;;;;;4981356;28;20187;-59
2021/10/31 04:46:42;;;;;;;43.20;17.92;;;;;;;;;;4997608;28;20155;-59
2021/10/31 04:49:10;;;;;;;42.58;16.38;;;;;;;;;;5000727;28;20477;-59
2021/10/31 04:51:36;;;;;;;38.28;16.48;;;;;;;;;;4999549;28;20038;-59
2021/10/31 04:54:01;;;;;;;39.78;16.83;;;;;;;;;;4998956;28;20108;-60
2021/10/31 04:56:32;;;;;;;40.95;17.00;;;;;;;;;;4998217;28;20037;-58
2021/10/31 04:58:58;;;;;;;33.92;16.92;;;;;;;;;;4999116;28;20041;-59
2021/10/31 05:01:28;;;;;;;44.47;17.67;;;;;;;;;;4988968;28;20029;-59
2021/10/31 05:03:57;;;;;;;37.35;16.70;;;;;;;;;;5000285;28;20030;-60
2021/10/31 05:06:24;;;;;;;36.72;17.13;;;;;;;;;;5000258;28;20049;-59
2021/10/31 05:08:56;;;;;;;42.72;18.10;;;;;;;;;;4985691;28;20033;-59
2021/10/31 05:11:21;;;;;;;39.13;17.33;;;;;;;;;;5000553;28;20034;-58
2021/10/31 05:13:48;;;;;;;43.85;18.65;;;;;;;;;;4987565;28;20030;-58
2021/10/31 05:16:14;;;;;;;52.45;19.70;;;;;;;;;;4981045;28;20685;-59
2021/10/31 05:18:42;;;;;;;47.65;18.80;;;;;;;;;;4998384;28;20041;-59
2021/10/31 05:21:10;;;;;;;52.53;20.77;;;;;;;;;;4999738;28;20041;-60
2021/10/31 05:23:40;;;;;;;46.97;19.30;;;;;;;;;;4997239;28;20034;-59
2021/10/31 05:26:10;;;;;;;48.78;20.33;;;;;;;;;;4997109;28;20041;-59
2021/10/31 05:28:38;;;;;;;52.17;19.95;;;;;;;;;;4996759;28;20089;-59
2021/10/31 05:31:06;;;;;;;46.17;21.10;;;;;;;;;;4986492;28;20037;-60
2021/10/31 05:33:31;;;;;;;50.33;20.77;;;;;;;;;;4983766;28;20551;-58
2021/10/31 05:35:59;;;;;;;51.13;21.60;;;;;;;;;;4997964;28;20058;-60
2021/10/31 05:38:29;;;;;;;54.38;20.17;;;;;;;;;;4974883;28;20030;-58
2021/10/31 05:40:55;;;;;;;61.40;23.70;;;;;;;;;;4983609;28;20925;-59
2021/10/31 05:43:21;;;;;;;58.15;21.33;;;;;;;;;;5001508;28;20038;-60
2021/10/31 05:45:48;;;;;;;65.15;21.70;;;;;;;;;;5001598;28;20029;-59
2021/10/31 05:48:15;;;;;;;61.92;22.70;;;;;;;;;;5001186;28;20032;-59
2021/10/31 05:50:43;;;;;;;57.08;23.40;;;;;;;;;;5000393;28;20320;-59
2021/10/31 05:53:13;;;;;;;51.45;19.98;;;;;;;;;;4984799;28;20033;-59
2021/10/31 05:55:41;;;;;;;54.67;22.45;;;;;;;;;;5001049;28;20029;-59
2021/10/31 05:58:07;;;;;;;58.35;21.70;;;;;;;;;;5000405;28;20034;-58
2021/10/31 06:00:37;;;;;;;49.90;20.42;;;;;;;;;;4996216;28;20112;-58
2021/10/31 06:03:02;;;;;;;57.30;22.58;;;;;;;;;;4986201;28;20076;-58
2021/10/31 06:05:29;;;;;;;53.65;21.67;;;;;;;;;;4997962;28;20034;-58
2021/10/31 06:07:54;;;;;;;48.00;20.98;;;;;;;;;;4999538;28;20042;-59
2021/10/31 06:10:20;;;;;;;60.05;21.83;;;;;;;;;;4997901;28;20048;-60
2021/10/31 06:12:46;;;;;;;58.88;19.52;;;;;;;;;;4983505;28;20411;-58
2021/10/31 06:15:13;;;;;;;56.92;20.80;;;;;;;;;;4999280;28;20443;-60
2021/10/31 06:17:39;;;;;;;56.70;20.88;;;;;;;;;;4999813;28;20036;-60
2021/10/31 06:20:09;;;;;;;58.58;20.98;;;;;;;;;;4988675;28;20072;-59
2021/10/31 06:22:38;;;;;;;52.78;20.52;;;;;;;;;;4980769;28;20400;-58
2021/10/31 06:25:06;;;;;;;47.35;19.95;;;;;;;;;;4999582;28;20041;-61
2021/10/31 06:27:36;;;;;;;48.33;19.15;;;;;;;;;;4965832;28;20069;-58
2021/10/31 06:30:03;;;;;;;52.58;19.60;;;;;;;;;;4999441;28;20038;-59
2021/10/31 06:32:33;;;;;;;48.25;19.80;;;;;;;;;;4998189;28;20018;-59
2021/10/31 06:35:04;;;;;;;51.67;19.33;;;;;;;;;;4983646;28;20033;-59
2021/10/31 06:37:29;;;;;;;46.30;18.85;;;;;;;;;;4997016;28;20022;-59
2021/10/31 06:39:57;;;;;;;50.28;19.90;;;;;;;;;;4999506;28;20021;-59
2021/10/31 06:42:28;;;;;;;46.42;18.77;;;;;;;;;;4999524;28;20045;-59
2021/10/31 06:44:56;;;;;;;45.25;18.05;;;;;;;;;;4996649;28;20046;-59
2021/10/31 06:47:24;;;;;;;62.00;19.20;;;;;;;;;;4964008;28;20068;-59
2021/10/31 06:49:50;;;;;;;52.75;19.88;;;;;;;;;;4989494;28;20535;-59
2021/10/31 06:52:18;;;;;;;41.83;17.45;;;;;;;;;;4999269;28;20457;-59
2021/10/31 06:54:43;;;;;;;50.08;17.70;;;;;;;;;;4980531;28;20033;-60
2021/10/31 06:57:09;;;;;;;43.53;17.73;;;;;;;;;;4980180;28;20025;-60
2021/10/31 06:59:39;;;;;;;43.20;17.70;;;;;;;;;;4986703;28;20025;-59
2021/10/31 07:02:07;;;;;;;50.40;16.50;;;;;;;;;;4996246;28;20149;-59
2021/10/31 07:04:37;;;;;;;41.60;16.42;;;;;;;;;;4998469;28;20473;-58
2021/10/31 07:07:10;;;;;;;43.05;15.88;;;;;;;;;;4996459;28;20053;-59
2021/10/31 07:09:38;;;;;;;43.35;17.23;;;;;;;;;;4979238;28;20038;-58
2021/10/31 07:12:09;;;;;;;43.70;15.65;;;;;;;;;;4998505;28;20120;-58
2021/10/31 07:14:38;;;;;;;38.28;16.08;;;;;;;;;;4996021;28;20041;-57
2021/10/31 07:17:08;;;;;;;40.00;16.20;;;;;;;;;;4980101;28;20038;-58
2021/10/31 07:19:35;;;;;;;46.83;16.30;;;;;;;;;;4997161;28;20029;-58
2021/10/31 07:22:03;;;;;;;40.70;17.20;;;;;;;;;;4982194;28;20092;-58
2021/10/31 07:24:32;;;;;;;44.92;15.73;;;;;;;;;;4971215;28;20041;-57
2021/10/31 07:26:57;;;;;;;39.35;16.52;;;;;;;;;;4997898;28;20600;-58
2021/10/31 07:29:25;;;;;;;34.53;14.30;;;;;;;;;;4998222;28;21282;-58
2021/10/31 07:31:53;;;;;;;36.28;15.50;;;;;;;;;;4998643;28;20112;-58
2021/10/31 07:34:25;;;;;;;29.88;13.32;;;;;;;;;;4995188;28;20033;-58
2021/10/31 07:36:53;;;;;;;37.17;14.48;;;;;;;;;;4981888;28;20033;-58
2021/10/31 07:39:24;;;;;;;30.52;12.98;;;;;;;;;;4997046;28;20047;-58
2021/10/31 07:41:50;;;;;;;28.63;13.65;;;;;;;;;;4982007;28;20029;-58
2021/10/31 07:44:16;;;;;;;35.95;14.57;;;;;;;;;;4995364;28;20037;-57
2021/10/31 07:46:47;;;;;;;33.50;14.15;;;;;;;;;;4995070;28;20079;-58
2021/10/31 07:49:14;;;;;;;35.63;15.70;;;;;;;;;;4994264;28;20125;-58
2021/10/31 07:51:42;;;;;;;45.97;14.40;;;;;;;;;;4997317;28;20132;-59
2021/10/31 07:54:07;;;;;;;30.88;13.43;;;;;;;;;;4978811;28;20089;-59
2021/10/31 07:56:34;;;;;;;28.80;12.77;;;;;;;;;;4994863;28;20029;-58
2021/10/31 07:59:00;;;;;;;33.90;13.57;;;;;;;;;;4995666;28;20033;-59
2021/10/31 08:01:28;;;;;;;26.23;12.95;;;;;;;;;;4981918;28;20359;-58
2021/10/31 08:03:56;;;;;;;25.65;13.10;;;;;;;;;;4986313;28;20444;-59
2021/10/31 08:06:28;;;;;;;28.73;12.27;;;;;;;;;;4993496;28;20681;-59
2021/10/31 08:08:56;;;;;;;31.50;12.55;;;;;;;;;;4996400;28;20033;-60
2021/10/31 08:11:22;;;;;;;23.58;11.77;;;;;;;;;;4997424;28;20033;-59
2021/10/31 08:13:53;;;;;;;25.05;11.90;;;;;;;;;;4987219;28;20099;-59
2021/10/31 08:16:22;;;;;;;24.38;11.73;;;;;;;;;;4994331;28;20107;-60
2021/10/31 08:18:48;;;;;;;29.50;11.98;;;;;;;;;;4976755;28;20067;-59
2021/10/31 08:21:13;;;;;;;25.73;12.10;;;;;;;;;;4990263;28;20025;-60
2021/10/31 08:23:39;;;;;;;25.45;12.00;;;;;;;;;;4975994;28;20119;-60
2021/10/31 08:26:05;;;;;;;30.30;11.75;;;;;;;;;;4997871;28;21026;-58
2021/10/31 08:28:36;;;;;;;24.52;10.95;;;;;;;;;;4997472;28;20029;-59
2021/10/31 08:31:07;;;;;;;24.27;11.75;;;;;;;;;;4996730;28;20049;-59
2021/10/31 08:33:42;;;;;;;22.13;11.60;;;;;;;;;;4997491;28;20121;-59
2021/10/31 08:36:09;;;;;;;24.45;11.50;;;;;;;;;;4993768;28;20547;-60
2021/10/31 08:38:39;;;;;;;17.60;10.77;;;;;;;;;;4994511;28;20032;-59
2021/10/31 08:41:09;;;;;;;31.63;12.18;;;;;;;;;;4995633;28;20504;-59
2021/10/31 08:43:40;;;;;;;24.30;11.80;;;;;;;;;;4978961;28;20048;-59
2021/10/31 08:46:08;;;;;;;20.42;10.63;;;;;;;;;;4996713;28;20100;-59
2021/10/31 08:48:34;;;;;;;23.98;10.27;;;;;;;;;;4979651;28;20151;-59
2021/10/31 08:51:00;;;;;;;23.45;10.43;;;;;;;;;;4996734;28;20044;-59
2021/10/31 08:53:30;;;;;;;21.30;10.13;;;;;;;;;;4979181;28;20151;-59
2021/10/31 08:55:59;;;;;;;18.48;9.50;;;;;;;;;;4980105;28;20029;-59
2021/10/31 08:58:31;;;;;;;20.45;9.93;;;;;;;;;;4997501;28;20109;-59
2021/10/31 09:00:57;;;;;;;24.73;9.95;;;;;;;;;;4975914;28;20034;-59
2021/10/31 09:03:25;;;;;;;17.83;9.57;;;;;;;;;;4991405;28;20414;-60
2021/10/31 09:05:50;;;;;;;21.70;10.15;;;;;;;;;;4977287;28;22075;-60
2021/10/31 09:08:18;;;;;;;17.98;8.65;;;;;;;;;;4996139;28;20045;-59
2021/10/31 09:10:47;;;;;;;16.27;8.85;;;;;;;;;;4982109;28;20045;-59
2021/10/31 09:13:14;;;;;;;15.73;9.02;;;;;;;;;;4994718;28;20038;-59
2021/10/31 09:15:45;;;;;;;14.32;7.40;;;;;;;;;;4983623;28;20069;-58
2021/10/31 09:18:10;;;;;;;16.48;7.93;;;;;;;;;;4981917;28;20504;-59
2021/10/31 09:20:39;;;;;;;18.05;8.02;;;;;;;;;;4993249;28;20040;-60
2021/10/31 09:23:05;;;;;;;17.00;8.60;;;;;;;;;;4961662;28;20497;-59
2021/10/31 09:25:34;;;;;;;12.10;7.80;;;;;;;;;;4982204;28;20028;-59
2021/10/31 09:28:02;;;;;;;17.15;7.70;;;;;;;;;;4965856;28;20085;-59
2021/10/31 09:30:28;;;;;;;17.33;8.20;;;;;;;;;;4996991;28;20737;-59
2021/10/31 09:32:54;;;;;;;13.38;8.65;;;;;;;;;;4997530;28;20059;-60
2021/10/31 09:35:25;;;;;;;14.70;7.38;;;;;;;;;;4998823;28;20734;-60
2021/10/31 09:38:00;;;;;;;12.13;7.13;;;;;;;;;;4997657;28;20041;-59
2021/10/31 09:40:26;;;;;;;15.77;6.82;;;;;;;;;;4999494;28;20109;-60
2021/10/31 09:43:02;;;;;;;17.05;7.90;;;;;;;;;;4981737;28;20047;-59
2021/10/31 09:45:29;;;;;;;11.20;6.28;;;;;;;;;;4997844;28;20973;-58
2021/10/31 09:47:57;;;;;;;10.80;6.43;;;;;;;;;;4965959;28;20029;-60
2021/10/31 09:50:26;;;;;;;15.43;5.65;;;;;;;;;;4997997;28;20030;-61
2021/10/31 09:52:52;;;;;;;10.13;6.05;;;;;;;;;;4997685;28;20033;-61
2021/10/31 09:55:20;;;;;;;9.23;6.75;;;;;;;;;;4999200;28;20076;-59
2021/10/31 09:57:48;;;;;;;9.63;6.20;;;;;;;;;;4980830;28;20120;-59
2021/10/31 10:00:19;;;;;;;10.35;6.43;;;;;;;;;;4998944;28;20084;-59
2021/10/31 10:02:51;;;;;;;8.82;5.93;;;;;;;;;;4997690;28;20149;-59
2021/10/31 10:05:17;;;;;;;9.75;6.15;;;;;;;;;;4998129;28;20052;-59
2021/10/31 10:07:45;;;;;;;9.02;5.35;;;;;;;;;;4983891;28;20046;-59
2021/10/31 10:10:12;;;;;;;7.55;5.28;;;;;;;;;;4978965;28;20037;-59
2021/10/31 10:12:37;;;;;;;7.40;4.68;;;;;;;;;;4949036;28;20044;-59
2021/10/31 10:15:07;;;;;;;7.72;4.63;;;;;;;;;;4980532;28;20408;-60
2021/10/31 10:17:48;;;;;;;9.38;4.53;;;;;;;;;;4979134;28;20131;-58
2021/10/31 10:20:17;;;;;;;9.18;4.47;;;;;;;;;;4978550;28;20497;-58
2021/10/31 10:22:45;;;;;;;8.13;4.13;;;;;;;;;;4962659;28;20744;-59
2021/10/31 10:25:12;;;;;;;8.32;5.15;;;;;;;;;;4961707;28;20045;-59
2021/10/31 10:27:51;;;;;;;7.45;3.88;;;;;;;;;;4978769;28;20037;-59
2021/10/31 10:30:19;;;;;;;9.38;4.10;;;;;;;;;;4979400;28;20383;-59
2021/10/31 10:32:55;;;;;;;6.65;3.35;;;;;;;;;;4960342;28;20034;-59
2021/10/31 10:35:27;;;;;;;7.38;3.90;;;;;;;;;;4979717;28;20068;-59
2021/10/31 10:37:56;;;;;;;3.97;3.17;;;;;;;;;;4976404;28;21263;-58
2021/10/31 10:40:25;;;;;;;4.13;3.20;;;;;;;;;;4976927;28;20037;-59
2021/10/31 10:42:54;;;;;;;7.22;3.78;;;;;;;;;;4980024;28;20031;-58
2021/10/31 10:45:22;;;;;;;6.93;3.47;;;;;;;;;;4975214;28;22098;-59
2021/10/31 10:47:56;;;;;;;8.38;3.50;;;;;;;;;;4979664;28;20104;-59
2021/10/31 10:50:21;;;;;;;5.30;2.50;;;;;;;;;;4954768;28;20310;-59
2021/10/31 10:52:50;;;;;;;6.53;2.47;;;;;;;;;;4977941;28;20034;-58
2021/10/31 10:55:22;;;;;;;7.13;2.97;;;;;;;;;;4979603;28;20034;-59
2021/10/31 10:57:53;;;;;;;3.30;2.88;;;;;;;;;;4976942;28;20486;-60
2021/10/31 11:00:19;;;;;;;7.03;2.72;;;;;;;;;;4978494;28;20030;-59
2021/10/31 11:02:46;;;;;;;5.07;3.15;;;;;;;;;;4955937;28;20046;-60
2021/10/31 11:05:16;;;;;;;5.57;3.10;;;;;;;;;;4977693;28;20038;-58
2021/10/31 11:07:46;;;;;;;5.90;3.28;;;;;;;;;;4988325;28;20164;-60
2021/10/31 11:10:18;;;;;;;7.18;3.58;;;;;;;;;;4999758;28;20029;-58
2021/10/31 11:12:44;;;;;;;3.80;2.72;;;;;;;;;;4996558;28;20038;-59
2021/10/31 11:15:19;;;;;;;6.47;2.90;;;;;;;;;;4998505;28;20033;-59
2021/10/31 11:17:48;;;;;;;6.18;3.05;;;;;;;;;;4996550;28;20156;-60
2021/10/31 11:20:17;;;;;;;7.05;2.97;;;;;;;;;;4978090;28;20042;-59
2021/10/31 11:22:44;;;;;;;7.72;2.83;;;;;;;;;;4996065;28;20091;-62
2021/10/31 11:25:13;;;;;;;4.20;2.72;;;;;;;;;;4996769;28;20030;-62
2021/10/31 11:27:39;;;;;;;6.65;2.10;;;;;;;;;;4996509;28;20152;-60
2021/10/31 11:30:10;;;;;;;3.30;2.08;;;;;;;;;;4983676;28;20032;-60
2021/10/31 11:32:39;;;;;;;3.70;2.67;;;;;;;;;;4997682;28;20128;-61
2021/10/31 11:35:06;;;;;;;6.78;2.55;;;;;;;;;;4996430;28;20021;-59
2021/10/31 11:37:34;;;;;;;9.30;2.55;;;;;;;;;;4996320;28;20041;-60
2021/10/31 11:40:04;;;;;;;7.22;2.90;;;;;;;;;;4994882;28;20607;-59
2021/10/31 11:42:34;;;;;;;4.88;2.28;;;;;;;;;;4998990;28;20035;-59
2021/10/31 11:45:12;;;;;;;4.25;2.20;;;;;;;;;;4998380;28;20508;-59
2021/10/31 11:47:38;;;;;;;6.22;2.40;;;;;;;;;;4995517;28;20037;-59
2021/10/31 11:50:11;;;;;;;4.18;2.35;;;;;;;;;;4996116;28;20124;-60
2021/10/31 11:52:49;;;;;;;4.68;2.22;;;;;;;;;;4994202;28;20215;-60
2021/10/31 11:55:31;;;;;;;5.32;2.50;;;;;;;;;;4995475;28;20022;-61
2021/10/31 11:58:05;;;;;;;7.70;2.20;;;;;;;;;;4996169;28;20029;-60
2021/10/31 12:00:33;;;;;;;6.35;2.60;;;;;;;;;;4997590;28;20068;-59
2021/10/31 12:03:09;;;;;;;7.13;2.88;;;;;;;;;;4996305;28;20550;-60
2021/10/31 12:05:38;;;;;;;5.22;2.55;;;;;;;;;;4996285;28;20042;-60
2021/10/31 12:08:30;;;;;;;7.80;3.47;;;;;;;;;;4992612;28;20148;-59
2021/10/31 12:10:57;;;;;;;4.63;2.92;;;;;;;;;;4996124;28;20029;-59
2021/10/31 12:13:25;;;;;;;6.47;3.03;;;;;;;;;;4994922;28;20120;-59
2021/10/31 12:15:59;;;;;;;4.88;2.58;;;;;;;;;;4998741;28;20030;-59
2021/10/31 12:18:42;;;;;;;4.72;3.20;;;;;;;;;;4995304;28;20499;-59
2021/10/31 12:21:17;;;;;;;7.25;3.65;;;;;;;;;;4977670;28;20073;-60
2021/10/31 12:24:02;;;;;;;6.80;3.08;;;;;;;;;;4996198;28;20099;-60
2021/10/31 12:26:34;;;;;;;3.92;2.50;;;;;;;;;;4981418;28;20146;-61
2021/10/31 12:32:39;;;;;;;5.60;3.08;;;;;;;;;;4989821;28;20124;-60
2021/10/31 12:35:05;;;;;;;5.93;3.30;;;;;;;;;;4979973;28;20037;-60
2021/10/31 12:37:30;;;;;;;4.97;2.70;;;;;;;;;;4995537;28;20029;-59
2021/10/31 12:40:04;;;;;;;4.75;2.88;;;;;;;;;;4994123;28;20079;-59
2021/10/31 12:42:32;;;;;;;4.72;2.97;;;;;;;;;;4993078;28;20128;-59
2021/10/31 12:45:05;;;;;;;9.27;2.70;;;;;;;;;;4993086;28;20035;-58
2021/10/31 12:47:38;;;;;;;4.75;2.75;;;;;;;;;;4981221;28;20038;-60
2021/10/31 12:50:09;;;;;;;6.97;3.05;;;;;;;;;;4995245;28;20088;-60
2021/10/31 12:52:37;;;;;;;4.88;2.65;;;;;;;;;;4978748;28;20139;-59
2021/10/31 12:55:09;;;;;;;4.43;2.97;;;;;;;;;;4980565;28;20037;-60
2021/10/31 12:57:47;;;;;;;5.93;2.67;;;;;;;;;;4992981;28;20030;-60
2021/10/31 13:00:15;;;;;;;5.32;2.67;;;;;;;;;;4996276;28;20034;-60
2021/10/31 13:02:47;;;;;;;5.53;2.80;;;;;;;;;;4994067;28;20116;-60
2021/10/31 13:05:13;;;;;;;4.18;2.47;;;;;;;;;;4981447;28;20080;-60
2021/10/31 13:07:44;;;;;;;5.20;2.90;;;;;;;;;;4994337;28;20050;-60
2021/10/31 13:10:15;;;;;;;5.32;2.75;;;;;;;;;;4998189;28;20045;-60
2021/10/31 13:12:43;;;;;;;5.75;3.05;;;;;;;;;;4998887;28;20048;-60
2021/10/31 13:15:17;;;;;;;5.28;2.92;;;;;;;;;;5000040;28;20018;-58
2021/10/31 13:17:46;;;;;;;6.38;2.22;;;;;;;;;;5001484;28;20147;-59
2021/10/31 13:20:13;;;;;;;10.60;3.05;;;;;;;;;;4979912;28;21668;-58
2021/10/31 13:22:45;;;;;;;7.80;2.88;;;;;;;;;;5000096;28;20116;-60
2021/10/31 13:25:13;;;;;;;4.00;2.55;;;;;;;;;;4999245;28;20034;-60
2021/10/31 13:27:44;;;;;;;7.65;3.35;;;;;;;;;;4981011;28;20127;-60
2021/10/31 13:30:13;;;;;;;5.70;3.03;;;;;;;;;;4997848;28;20115;-60
2021/10/31 13:32:39;;;;;;;5.00;3.38;;;;;;;;;;4984122;28;20042;-64
2021/10/31 13:35:07;;;;;;;3.95;2.78;;;;;;;;;;4999325;28;20033;-60
2021/10/31 13:37:33;;;;;;;6.28;3.10;;;;;;;;;;4996393;28;20201;-59
2021/10/31 13:40:08;;;;;;;6.10;3.15;;;;;;;;;;4997469;28;21076;-58
2021/10/31 13:42:39;;;;;;;5.47;3.13;;;;;;;;;;4996835;28;20050;-58
2021/10/31 13:45:15;;;;;;;8.50;2.90;;;;;;;;;;4998364;28;20036;-59
2021/10/31 13:47:54;;;;;;;7.28;3.75;;;;;;;;;;4978646;28;20044;-59
2021/10/31 13:50:30;;;;;;;5.57;2.70;;;;;;;;;;4998840;28;20045;-58
2021/10/31 13:52:56;;;;;;;4.97;2.50;;;;;;;;;;4999548;28;20871;-59
2021/10/31 13:55:27;;;;;;;4.40;2.67;;;;;;;;;;4983663;28;20124;-59
2021/10/31 13:57:52;;;;;;;4.95;2.30;;;;;;;;;;4999288;28;20167;-60
2021/10/31 14:00:21;;;;;;;6.88;2.78;;;;;;;;;;4997145;28;20028;-59
2021/10/31 14:02:49;;;;;;;5.40;2.70;;;;;;;;;;4983535;28;20769;-59
2021/10/31 14:05:19;;;;;;;3.97;2.42;;;;;;;;;;4995419;28;20108;-60
2021/10/31 14:07:47;;;;;;;6.22;2.90;;;;;;;;;;4995133;28;20061;-60
2021/10/31 14:10:14;;;;;;;4.82;2.92;;;;;;;;;;4998167;28;20042;-60
2021/10/31 14:12:43;;;;;;;5.68;2.92;;;;;;;;;;4997608;28;20776;-59
2021/10/31 14:15:21;;;;;;;4.85;2.40;;;;;;;;;;4982840;28;20644;-60
2021/10/31 14:17:59;;;;;;;4.07;2.80;;;;;;;;;;4997644;28;20036;-59
2021/10/31 14:20:30;;;;;;;6.28;2.50;;;;;;;;;;4982328;28;20097;-60
2021/10/31 14:22:59;;;;;;;6.30;2.60;;;;;;;;;;4996920;28;20103;-60
2021/10/31 14:25:27;;;;;;;5.40;2.75;;;;;;;;;;4986234;28;20495;-59
2021/10/31 14:28:12;;;;;;;5.82;2.83;;;;;;;;;;4998617;28;20034;-60
2021/10/31 14:30:41;;;;;;;5.22;2.50;;;;;;;;;;4987907;28;20065;-59
2021/10/31 14:33:20;;;;;;;6.25;2.33;;;;;;;;;;4980857;28;20076;-58
2021/10/31 14:35:47;;;;;;;4.20;2.45;;;;;;;;;;4980546;28;20401;-58
2021/10/31 14:38:20;;;;;;;3.63;2.15;;;;;;;;;;4965372;28;20065;-58
2021/10/31 14:41:01;;;;;;;8.50;2.28;;;;;;;;;;4994750;28;20647;-59
2021/10/31 14:43:29;;;;;;;3.88;2.55;;;;;;;;;;4981124;28;20037;-58
2021/10/31 14:46:10;;;;;;;3.70;2.35;;;;;;;;;;4998629;28;20030;-58
2021/10/31 14:48:47;;;;;;;7.05;3.05;;;;;;;;;;4997015;28;20038;-62